Terminal Aerodrome Forecast
Issued by NWS

Home | Current Version | Previous Version | Text Only | Print | Product List | Glossary On
Versions: 1 2 3 4 5 6 7 8 9 10 11 12 13
000
FTUS42 KMLB 231121
TAFSUA
TAF
KSUA 231121Z 2312/2412 10010KT P6SM VCSH SCT025 BKN040
     FM231500 11013G20KT P6SM FEW030 SCT040
     FM240000 10008KT P6SM FEW040=

USA.gov is the U.S. government's official web portal to all federal, state and local government web resources and services.